HBBA/BJM METAR and TAF weather

Enter ICAO airport designator
Station Type Date Time Source
HBBA METAR 2021/01/07 15:00 UTC NOAA

HBBA 071500Z 18012KT 9999 FEW030TCU SCT100 29/19 Q1007 NOSIG


Station Type Date Time Source
HBBA Decoded METAR 2021/01/07 15:00 UTC NOAA

Bujumbura, Burundi (HBBA) 03-19S 029-19E 783M
Jan 07, 2021 - 10:00 AM EST / 2021.01.07 1500 UTC
Wind: from the S (180 degrees) at 14 MPH (12 KT):0
Visibility: greater than 7 mile(s):0
Sky conditions: partly cloudy
Weather: Towering cumulus clouds observed
Temperature: 84 F (29 C)
Dew Point: 66 F (19 C)
Relative Humidity: 54%
Pressure (altimeter): 29.74 in. Hg (1007 hPa)
ob: HBBA 071500Z 18012KT 9999 FEW030TCU SCT100 29/19 Q1007 NOSIG
cycle: 15

Station Type Date Time Source
HBBA TAF 2021/01/17 18:58 UTC NOAA

TAF HBBA 171700Z 1718/1824 10004KT 9999 FEW026 SCT090
TEMPO 1719/1801 36006KT 7000 TSRA OR SHRA FEW025CB BKN080
BECMG1809/1810 18008G20KT 9999 FEW030 BKN100
BECMG1819/1821 36003KT 9999 FEW023 BKN090

Example: see airport list